1926 Tropical Low NOT_NAMED (1926038S15151)


IBTrACS version v04r00. Visit IBTrACS website for data access.
Please direct all questions to the IBTrACS Q and A forum

Storm track - Intensity - Wind Radii - Intensity Data - Source Data - All data

Summary Information

Storm ID 1926038S15151
Start Feb 6 23Z
Max Intensity 30 kt (Feb 9 00Z), 999 mb (Feb 8 23Z)
End Feb 12 23Z
ATCF IDs
Track status Best track data.

Storm track plot

Map of storm track

Intensity plots

Map of storm track

Radial wind information

No radial wind information for this storm


Position and Intensity Table

BASIN ISO_TIME_________ NATURE LAT LON WMO PRES BOM PRES DS824 WIND DS824 PRES
degrees north degrees east mb mb kts mb
SP 1926-02-06 23:00:00 NR -15.00 151.20
SP 1926-02-07 00:00:00 TS -15.10 151.08
SP 03:00:00 TS -15.41 150.69
SP 05:00:00 TS -15.60 150.42
SP 06:00:00 TS -15.70 150.28
SP 09:00:00 TS -15.97 149.85
SP 12:00:00 TS -16.22 149.41
SP 15:00:00 TS -16.46 148.98
SP 18:00:00 TS -16.68 148.58
SP 21:00:00 TS -16.90 148.21
SP 23:00:00 TS -17.04 148.00
SP 1926-02-08 00:00:00 TS -17.11 147.90
SP 03:00:00 TS -17.32 147.63
SP 06:00:00 TS -17.53 147.43
SP 09:00:00 TS -17.73 147.30
SP 12:00:00 TS -17.92 147.25
SP 13:00:00 TS -17.98 147.25
SP 15:00:00 TS -18.12 147.29
SP 18:00:00 TS -18.30 147.40
SP 21:00:00 TS -18.48 147.56
SP 23:00:00 TS -18.58 147.67 999 999
SP 1926-02-09 00:00:00 TS -18.63 147.72 30 999
SP 03:00:00 TS -18.78 147.86
SP 06:00:00 TS -18.91 148.00
SP 09:00:00 TS -19.00 148.15
SP 12:00:00 TS -19.06 148.29
SP 15:00:00 TS -19.08 148.43
SP 16:00:00 TS -19.07 148.48
SP 18:00:00 TS -19.04 148.57
SP 21:00:00 TS -18.96 148.70
SP 23:00:00 TS -18.91 148.78
SP 1926-02-10 00:00:00 TS -18.88 148.82
SP 03:00:00 TS -18.81 148.90
SP 06:00:00 TS -18.75 148.98
SP 09:00:00 TS -18.68 149.04
SP 12:00:00 TS -18.61 149.09
SP 15:00:00 TS -18.55 149.14
SP 18:00:00 TS -18.49 149.19
SP 21:00:00 TS -18.44 149.24
SP 23:00:00 TS -18.41 149.29
SP 1926-02-11 00:00:00 TS -18.40 149.30
SP 03:00:00 TS -18.37 149.33
SP 06:00:00 TS -18.36 149.36
SP 09:00:00 TS -18.35 149.41
SP 12:00:00 TS -18.35 149.47
SP 15:00:00 TS -18.35 149.57
SP 18:00:00 TS -18.34 149.72
SP 21:00:00 TS -18.32 149.93
SP 23:00:00 TS -18.30 150.10
SP 1926-02-12 00:00:00 TS -18.29 150.20
SP 03:00:00 TS -18.24 150.55
SP 06:00:00 TS -18.19 150.95
SP 09:00:00 TS -18.14 151.39
SP 11:00:00 TS -18.11 151.68
SP 12:00:00 TS -18.10 151.83
SP 15:00:00 NR -18.10 152.25
SP 18:00:00 NR -18.13 152.65
SP 21:00:00 NR -18.17 153.04
SP 23:00:00 NR -18.20 153.30

Source Information

Agency Information
USA
TOKYO
CMA
HKO
NEWDELHI
REUNION
BOM IDCKMSTM0S.csv:Line=571:unnamed
NADI
WELLINGTON
DS824 aus_area.dat:53:NOT NAMED
TD9636
TD9635
NEUMANN
MLC

All available IBTrACS Data

SEASON BASIN SUBBASIN ISO_TIME_________ NATURE LAT LON WMO PRES WMO AGENCY DIST2LAND LANDFALL IFLAG USA SSHS BOM LAT BOM LON BOM PRES BOM PRES_METHOD DS824 LAT DS824 LON DS824 STAGE DS824 WIND DS824 PRES STORM SPEED STORM DIR
Year degrees north degrees east mb km km 1 degrees north degrees east mb degrees north degrees east kts mb kts degrees
1926 SP EA 1926-02-06 23:00:00 NR -15.00 151.20 bom 489 489 ______O_______ -1 -15.00 151.20 9 228
1926 SP EA 1926-02-07 00:00:00 TS -15.10 151.08 498 496 ______P__O____ -1 -15.10 151.07 -15.10 151.10 TC 10 231
1926 SP EA 03:00:00 TS -15.41 150.69 527 500 ______P__P____ -1 -15.41 150.68 -15.40 150.70 TC 10 232
1926 SP EA 05:00:00 TS -15.60 150.42 bom 500 486 ______O__P____ -1 -15.60 150.40 -15.60 150.44 TC 10 234
1926 SP EA 06:00:00 TS -15.70 150.28 486 434 ______P__O____ -1 -15.69 150.26 -15.70 150.30 TC 10 236
1926 SP EA 09:00:00 TS -15.97 149.85 424 376 ______P__P____ -1 -15.96 149.81 -15.98 149.89 TC 10 238
1926 SP EA 12:00:00 TS -16.22 149.41 376 328 ______P__P____ -1 -16.20 149.35 -16.24 149.47 TC 10 239
1926 SP EA 15:00:00 TS -16.46 148.98 324 277 ______P__P____ -1 -16.43 148.90 -16.49 149.07 TC 9 240
1926 SP EA 18:00:00 TS -16.68 148.58 277 230 ______P__P____ -1 -16.65 148.48 -16.72 148.68 TC 9 239
1926 SP EA 21:00:00 TS -16.90 148.21 230 206 ______P__P____ -1 -16.86 148.11 -16.94 148.32 TC 8 237
1926 SP EA 23:00:00 TS -17.04 148.00 bom 206 194 ______O__P____ -1 -17.00 147.90 -17.08 148.10 TC 7 235
1926 SP EA 1926-02-08 00:00:00 TS -17.11 147.90 194 159 ______P__P____ -1 -17.08 147.80 -17.14 147.99 TC 7 231
1926 SP EA 03:00:00 TS -17.32 147.63 159 137 ______P__P____ -1 -17.30 147.54 -17.34 147.72 TC 6 227
1926 SP EA 06:00:00 TS -17.53 147.43 137 127 ______P__P____ -1 -17.52 147.34 -17.53 147.51 TC 5 218
1926 SP EA 09:00:00 TS -17.73 147.30 127 116 ______P__P____ -1 -17.73 147.23 -17.72 147.36 TC 4 204
1926 SP EA 12:00:00 TS -17.92 147.25 116 116 ______P__O____ -1 -17.93 147.19 -17.90 147.30 TC 4 190
1926 SP EA 13:00:00 TS -17.98 147.25 bom 125 119 ______O__P____ -1 -18.00 147.20 -17.97 147.30 TC 4 170
1926 SP EA 15:00:00 TS -18.12 147.29 119 114 ______P__P____ -1 -18.13 147.25 -18.10 147.33 TC 4 156
1926 SP EA 18:00:00 TS -18.30 147.40 118 101 ______P__P____ -1 -18.32 147.39 -18.29 147.42 TC 4 144
1926 SP EA 21:00:00 TS -18.48 147.56 102 91 ______P__P____ -1 -18.50 147.57 -18.46 147.55 TC 5 136
1926 SP EA 23:00:00 TS -18.58 147.67 999 bom 94 94 ______O__P____ -1 -18.60 147.70 999 4 -18.56 147.65 TC 4 135
1926 SP EA 1926-02-09 00:00:00 TS -18.63 147.72 94 79 ______P__O____ -1 -18.66 147.75 -18.60 147.70 TC 30 999 4 139
1926 SP EA 03:00:00 TS -18.78 147.86 85 76 ______P__P____ -1 -18.84 147.90 -18.72 147.83 TC 4 136
1926 SP EA 06:00:00 TS -18.91 148.00 84 84 ______P__P____ -1 -19.00 148.04 -18.81 147.97 TC 4 129
1926 SP EA 09:00:00 TS -19.00 148.15 84 84 ______P__P____ -1 -19.13 148.18 -18.88 148.11 TC 3 120
1926 SP EA 12:00:00 TS -19.06 148.29 94 94 ______P__P____ -1 -19.21 148.32 -18.92 148.26 TC 3 105
1926 SP EA 15:00:00 TS -19.08 148.43 100 100 ______P__P____ -1 -19.21 148.46 -18.94 148.41 TC 3 93
1926 SP EA 16:00:00 TS -19.07 148.48 bom 102 102 ______O__P____ -1 -19.20 148.50 -18.94 148.46 TC 3 74
1926 SP EA 18:00:00 TS -19.04 148.57 116 116 ______P__P____ -1 -19.14 148.59 -18.94 148.55 TC 3 63
1926 SP EA 21:00:00 TS -18.96 148.70 119 119 ______P__P____ -1 -19.00 148.72 -18.93 148.68 TC 3 56
1926 SP EA 23:00:00 TS -18.91 148.78 bom 133 133 ______O__P____ -1 -18.90 148.80 -18.91 148.76 TC 3 54
1926 SP EA 1926-02-10 00:00:00 TS -18.88 148.82 133 133 ______P__O____ -1 -18.86 148.84 -18.90 148.80 TC 2 52
1926 SP EA 03:00:00 TS -18.81 148.90 148 148 ______P__P____ -1 -18.76 148.93 -18.87 148.88 TC 2 48
1926 SP EA 06:00:00 TS -18.75 148.98 162 162 ______P__P____ -1 -18.67 149.00 -18.82 148.95 TC 2 42
1926 SP EA 09:00:00 TS -18.68 149.04 162 162 ______P__P____ -1 -18.60 149.06 -18.75 149.01 TC 2 39
1926 SP EA 12:00:00 TS -18.61 149.09 177 177 ______P__P____ -1 -18.54 149.11 -18.68 149.07 TC 2 38
1926 SP EA 15:00:00 TS -18.55 149.14 187 187 ______P__P____ -1 -18.49 149.16 -18.60 149.12 TC 2 38
1926 SP EA 18:00:00 TS -18.49 149.19 192 192 ______P__P____ -1 -18.45 149.21 -18.53 149.17 TC 1 45
1926 SP EA 21:00:00 TS -18.44 149.24 202 202 ______P__P____ -1 -18.42 149.26 -18.46 149.23 TC 1 50
1926 SP EA 23:00:00 TS -18.41 149.29 bom 207 207 ______O__P____ -1 -18.40 149.30 -18.42 149.28 TC 1 51
1926 SP EA 1926-02-11 00:00:00 TS -18.40 149.30 207 207 ______P__O____ -1 -18.39 149.31 -18.40 149.30 TC 1 51
1926 SP EA 03:00:00 TS -18.37 149.33 207 207 ______P__P____ -1 -18.37 149.33 -18.38 149.33 TC 1 60
1926 SP EA 06:00:00 TS -18.36 149.36 213 213 ______P__P____ -1 -18.36 149.36 -18.36 149.37 TC 1 74
1926 SP EA 09:00:00 TS -18.35 149.41 213 213 ______P__P____ -1 -18.35 149.39 -18.36 149.42 TC 1 84
1926 SP EA 12:00:00 TS -18.35 149.47 218 218 ______P__P____ -1 -18.35 149.46 -18.35 149.49 TC 2 87
1926 SP EA 15:00:00 TS -18.35 149.57 234 234 ______P__P____ -1 -18.34 149.56 -18.35 149.59 TC 2 87
1926 SP EA 18:00:00 TS -18.34 149.72 240 240 ______P__P____ -1 -18.34 149.71 -18.34 149.74 TC 3 86
1926 SP EA 21:00:00 TS -18.32 149.93 251 251 ______P__P____ -1 -18.32 149.92 -18.32 149.94 TC 4 85
1926 SP EA 23:00:00 TS -18.30 150.10 bom 262 262 ______O__P____ -1 -18.30 150.10 -18.31 150.10 TC 5 83
1926 SP EA 1926-02-12 00:00:00 TS -18.29 150.20 267 267 ______P__O____ -1 -18.28 150.21 -18.30 150.20 TC 6 82
1926 SP EA 03:00:00 TS -18.24 150.55 301 301 ______P__P____ -1 -18.22 150.57 -18.26 150.53 TC 7 82
1926 SP EA 06:00:00 TS -18.19 150.95 329 329 ______P__P____ -1 -18.16 150.98 -18.22 150.93 TC 8 82
1926 SP EA 09:00:00 TS -18.14 151.39 367 367 ______P__P____ -1 -18.12 151.41 -18.16 151.35 TC 8 83
1926 SP EA 11:00:00 TS -18.11 151.68 bom 391 391 ______O__P____ -1 -18.10 151.70 -18.12 151.65 TC 9 85
1926 SP EA 12:00:00 TS -18.10 151.83 399 399 ______P__O____ -1 -18.10 151.84 -18.10 151.80 TC 8 90
1926 SP EA 15:00:00 NR -18.10 152.25 442 442 ______P_______ -1 -18.10 152.25 TC 8 92
1926 SP EA 18:00:00 NR -18.13 152.65 477 477 ______P_______ -1 -18.13 152.65 TC 8 95
1926 SP EA 21:00:00 NR -18.17 153.04 499 499 ______P_______ -1 -18.17 153.04 TC 7 97
1926 SP EA 23:00:00 NR -18.20 153.30 bom 527 ______O_______ -1 -18.20 153.30 TC 7 97